Terminal Aerodrome Forecast
Issued by NWS Salt Lake City, UT

Home | Current Version | Previous Version | Text Only | Print | Product List | Glossary On
Versions: 1 2 3 4 5 6 7 8 9 10 11 12 13 14 15 16 17 18 19 20 21 22 23 24 25 26 27 28 29 30 31
000
FTUS45 KSLC 071004 AAB
TAFSLC
TAF AMD
KSLC 071004Z 0710/0812 34010KT P6SM VCSH BKN040 BKN080
     FM071400 33006KT P6SM SCT040 SCT120
     FM071700 34005KT P6SM SCT050
     FM080300 14006KT P6SM SCT060 BKN150=

USA.gov is the U.S. government's official web portal to all federal, state and local government web resources and services.